Time;durP1;ratioP1;P1;durP2;ratioP2;P2;SDS_P1;SDS_P2;PMS_P1;PMS_P2;Temp;Humidity;BMP_temperature;BMP_pressure;BME280_temperature;BME280_humidity;BME280_pressure;Samples;Min_cycle;Max_cycle;Signal;HPM_P1;HPM_P2
2023/03/06 00:02:16;;;;;;;11.80;7.57;;;1.90;99.90;;;;;;5014520;28;20022;-58
2023/03/06 00:04:41;;;;;;;13.60;6.68;;;1.90;99.90;;;;;;5015205;28;20686;-59
2023/03/06 00:07:07;;;;;;;15.57;7.30;;;1.90;99.90;;;;;;5012028;28;20014;-58
2023/03/06 00:09:32;;;;;;;12.27;8.63;;;1.90;99.90;;;;;;5019270;28;20065;-58
2023/03/06 00:11:58;;;;;;;12.13;8.45;;;1.90;99.90;;;;;;5023413;28;20092;-60
2023/03/06 00:14:24;;;;;;;14.02;7.07;;;1.90;99.90;;;;;;5014253;28;20038;-58
2023/03/06 00:16:54;;;;;;;13.18;7.45;;;2.00;99.90;;;;;;5016412;28;20116;-58
2023/03/06 00:19:19;;;;;;;13.20;7.33;;;2.00;99.90;;;;;;5018283;28;20034;-58
2023/03/06 00:21:45;;;;;;;11.93;7.03;;;2.00;99.90;;;;;;5017611;28;20318;-60
2023/03/06 00:24:11;;;;;;;16.13;8.43;;;2.00;99.90;;;;;;5018460;28;20041;-57
2023/03/06 00:26:36;;;;;;;11.80;7.07;;;2.00;99.90;;;;;;5018874;28;20036;-60
2023/03/06 00:29:02;;;;;;;16.50;9.27;;;2.00;99.90;;;;;;5014194;28;20046;-60
2023/03/06 00:31:28;;;;;;;15.10;7.85;;;2.10;99.90;;;;;;5015150;28;20108;-58
2023/03/06 00:33:53;;;;;;;10.38;6.88;;;2.10;99.90;;;;;;5015728;28;20126;-59
2023/03/06 00:36:19;;;;;;;14.55;8.35;;;2.10;99.90;;;;;;5017248;28;20403;-59
2023/03/06 00:38:45;;;;;;;14.18;7.68;;;2.00;99.90;;;;;;5017080;28;20033;-60
2023/03/06 00:41:11;;;;;;;14.52;7.47;;;2.00;99.90;;;;;;5016530;28;20084;-58
2023/03/06 00:43:37;;;;;;;17.58;7.07;;;2.00;99.90;;;;;;5019518;28;20520;-58
2023/03/06 00:46:04;;;;;;;15.45;7.68;;;2.00;99.90;;;;;;5017119;28;20026;-59
2023/03/06 00:48:31;;;;;;;18.88;8.57;;;2.00;99.90;;;;;;5014563;28;20057;-59
2023/03/06 00:50:57;;;;;;;13.32;7.78;;;2.00;99.90;;;;;;5015176;28;20061;-59
2023/03/06 00:53:22;;;;;;;12.60;7.95;;;2.00;99.90;;;;;;5016825;28;20030;-57
2023/03/06 00:55:49;;;;;;;15.50;8.98;;;2.00;99.90;;;;;;5015954;28;20402;-59
2023/03/06 00:58:15;;;;;;;12.32;7.00;;;2.00;99.90;;;;;;5018649;28;20081;-60
2023/03/06 01:00:40;;;;;;;15.57;8.38;;;2.00;99.90;;;;;;5015321;28;20022;-61
2023/03/06 01:03:06;;;;;;;10.82;7.43;;;1.90;99.90;;;;;;5017921;28;20023;-60
2023/03/06 01:05:34;;;;;;;17.40;8.50;;;1.90;99.90;;;;;;5015457;28;20402;-60
2023/03/06 01:08:00;;;;;;;10.60;7.15;;;1.90;99.90;;;;;;5017231;28;20072;-60
2023/03/06 01:10:26;;;;;;;13.45;8.02;;;1.90;99.90;;;;;;5017228;28;20372;-59
2023/03/06 01:12:52;;;;;;;17.20;7.78;;;1.90;99.90;;;;;;5014355;28;20080;-60
2023/03/06 01:15:18;;;;;;;13.65;8.35;;;1.90;99.90;;;;;;5015981;28;20245;-58
2023/03/06 01:17:43;;;;;;;12.05;7.43;;;1.90;99.90;;;;;;5015939;28;20030;-60
2023/03/06 01:20:13;;;;;;;14.60;7.32;;;1.90;99.90;;;;;;5013801;28;20918;-60
2023/03/06 01:22:39;;;;;;;12.35;6.90;;;1.90;99.90;;;;;;5020271;28;20030;-58
2023/03/06 01:25:04;;;;;;;12.73;6.90;;;1.80;99.90;;;;;;5017536;28;20048;-58
2023/03/06 01:27:30;;;;;;;14.50;7.40;;;1.80;99.90;;;;;;5018730;28;20050;-57
2023/03/06 01:29:56;;;;;;;13.02;7.07;;;1.80;99.90;;;;;;5017639;28;20034;-58
2023/03/06 01:32:22;;;;;;;13.80;7.72;;;1.80;99.90;;;;;;5016305;28;20033;-57
2023/03/06 01:34:47;;;;;;;23.60;8.45;;;1.80;99.90;;;;;;5012207;28;20030;-57
2023/03/06 01:37:13;;;;;;;16.30;8.95;;;1.80;99.90;;;;;;5019324;28;20049;-57
2023/03/06 01:39:39;;;;;;;15.70;8.05;;;1.80;99.90;;;;;;5016276;28;20033;-57
2023/03/06 01:42:05;;;;;;;12.77;8.25;;;1.80;99.90;;;;;;5016300;28;20022;-59
2023/03/06 01:44:30;;;;;;;11.48;7.30;;;1.90;99.90;;;;;;5014757;28;20030;-59
2023/03/06 01:46:56;;;;;;;14.88;7.90;;;1.90;99.90;;;;;;5014689;28;20037;-58
2023/03/06 01:49:30;;;;;;;13.68;8.30;;;1.90;99.90;;;;;;5022719;28;20053;-60
2023/03/06 01:52:02;;;;;;;9.80;6.28;;;1.90;99.90;;;;;;5014335;28;20045;-60
2023/03/06 01:54:32;;;;;;;12.05;8.73;;;1.90;99.90;;;;;;5016612;28;20267;-59
2023/03/06 01:57:06;;;;;;;12.82;6.55;;;1.90;99.90;;;;;;5012824;28;20044;-60
2023/03/06 01:59:33;;;;;;;14.50;6.68;;;1.90;99.90;;;;;;5017250;28;20037;-58
2023/03/06 02:02:00;;;;;;;11.05;7.18;;;1.90;99.90;;;;;;5015865;28;20048;-59
2023/03/06 02:04:26;;;;;;;11.00;6.78;;;1.90;99.90;;;;;;5014657;28;20014;-60
2023/03/06 02:06:52;;;;;;;10.93;7.50;;;1.90;99.90;;;;;;5014314;28;20030;-57
2023/03/06 02:09:18;;;;;;;15.07;8.30;;;1.90;99.90;;;;;;5019695;28;20121;-60
2023/03/06 02:11:45;;;;;;;13.05;7.95;;;2.00;99.90;;;;;;5015996;28;20104;-59
2023/03/06 02:14:13;;;;;;;12.07;6.60;;;1.90;99.90;;;;;;5016864;28;20079;-60
2023/03/06 02:16:39;;;;;;;11.15;6.65;;;1.90;99.90;;;;;;5015387;28;20030;-59
2023/03/06 02:19:14;;;;;;;12.30;7.35;;;1.90;99.90;;;;;;5015640;28;20018;-60
2023/03/06 02:21:39;;;;;;;11.52;7.15;;;1.90;99.90;;;;;;5013871;28;20030;-59
2023/03/06 02:24:42;;;;;;;10.93;5.47;;;1.90;99.90;;;;;;5012699;28;20036;-60
2023/03/06 02:27:11;;;;;;;10.32;6.85;;;1.90;99.90;;;;;;5015566;28;20188;-59
2023/03/06 02:29:37;;;;;;;12.30;6.50;;;1.90;99.90;;;;;;5021956;28;20038;-59
2023/03/06 02:32:03;;;;;;;10.93;5.72;;;1.90;99.90;;;;;;5011005;28;20034;-58
2023/03/06 02:34:29;;;;;;;9.57;6.18;;;1.80;99.90;;;;;;5010238;28;20022;-58
2023/03/06 02:37:02;;;;;;;10.43;7.13;;;1.80;99.90;;;;;;5012877;28;20622;-58
2023/03/06 02:39:30;;;;;;;11.55;7.57;;;1.80;99.90;;;;;;5001046;28;20069;-59
2023/03/06 02:41:56;;;;;;;9.35;6.50;;;1.80;99.90;;;;;;5014464;28;20398;-57
2023/03/06 02:44:23;;;;;;;10.70;6.93;;;1.80;99.90;;;;;;5010983;28;20034;-59
2023/03/06 02:46:48;;;;;;;15.20;7.40;;;1.70;99.90;;;;;;5014688;28;20029;-60
2023/03/06 02:49:14;;;;;;;9.27;5.57;;;1.80;99.90;;;;;;5016164;28;20539;-60
2023/03/06 02:51:40;;;;;;;14.13;6.45;;;1.70;99.90;;;;;;5013484;28;20030;-58
2023/03/06 02:54:05;;;;;;;12.90;7.68;;;1.70;99.90;;;;;;5017589;28;20053;-59
2023/03/06 02:56:31;;;;;;;9.77;6.57;;;1.70;99.90;;;;;;5012515;28;20022;-60
2023/03/06 02:58:57;;;;;;;16.13;7.15;;;1.70;99.90;;;;;;5013921;28;20149;-59
2023/03/06 03:01:22;;;;;;;16.33;6.65;;;1.60;99.90;;;;;;5015355;28;20048;-59
2023/03/06 03:03:48;;;;;;;10.45;6.50;;;1.60;99.90;;;;;;5011845;28;20026;-58
2023/03/06 03:06:13;;;;;;;10.00;6.60;;;1.60;99.90;;;;;;5013919;28;20113;-60
2023/03/06 03:08:39;;;;;;;10.95;6.63;;;1.60;99.90;;;;;;5018154;28;20030;-60
2023/03/06 03:11:05;;;;;;;15.40;6.88;;;1.60;99.90;;;;;;5017684;28;20026;-60
2023/03/06 03:13:31;;;;;;;11.50;7.32;;;1.60;99.90;;;;;;5014769;28;20018;-58
2023/03/06 03:16:02;;;;;;;13.10;6.35;;;1.60;99.90;;;;;;5014978;28;20060;-60
2023/03/06 03:18:28;;;;;;;12.27;5.85;;;1.60;99.90;;;;;;5013775;28;20033;-60
2023/03/06 03:20:54;;;;;;;10.75;6.15;;;1.50;99.90;;;;;;5012669;28;20699;-58
2023/03/06 03:23:20;;;;;;;11.73;6.05;;;1.50;99.90;;;;;;5013548;28;20030;-59
2023/03/06 03:25:46;;;;;;;14.55;6.97;;;1.50;99.90;;;;;;5012326;28;20025;-59
2023/03/06 03:28:12;;;;;;;11.88;5.70;;;1.50;99.90;;;;;;5014682;28;20064;-58
2023/03/06 03:30:39;;;;;;;11.00;6.40;;;1.50;99.90;;;;;;5014767;28;20857;-59
2023/03/06 03:33:04;;;;;;;14.15;7.10;;;1.60;99.90;;;;;;5015826;28;20025;-59
2023/03/06 03:35:30;;;;;;;12.27;6.43;;;1.60;99.90;;;;;;5013584;28;20512;-59
2023/03/06 03:37:55;;;;;;;12.48;5.90;;;1.60;99.90;;;;;;5014201;28;20045;-59
2023/03/06 03:40:21;;;;;;;7.53;4.93;;;1.60;99.90;;;;;;5014653;28;20391;-58
2023/03/06 03:42:47;;;;;;;8.65;5.47;;;1.60;99.90;;;;;;5015739;28;20498;-59
2023/03/06 03:45:12;;;;;;;11.02;5.53;;;1.60;99.90;;;;;;5020488;28;20033;-60
2023/03/06 03:47:39;;;;;;;9.20;6.18;;;1.60;99.90;;;;;;5021428;28;20507;-59
2023/03/06 03:50:05;;;;;;;9.45;5.55;;;1.60;99.90;;;;;;5017083;28;20040;-58
2023/03/06 03:52:31;;;;;;;9.73;5.25;;;1.50;99.90;;;;;;5017725;28;20498;-60
2023/03/06 03:54:57;;;;;;;8.90;6.15;;;1.50;99.90;;;;;;5016665;28;20033;-59
2023/03/06 03:57:22;;;;;;;11.52;6.68;;;1.50;99.90;;;;;;5015742;28;20032;-59
2023/03/06 03:59:48;;;;;;;11.88;6.03;;;1.40;99.90;;;;;;5017015;28;20041;-59
2023/03/06 04:02:14;;;;;;;12.70;7.43;;;1.40;99.90;;;;;;5019203;28;20604;-60
2023/03/06 04:04:39;;;;;;;11.50;7.70;;;1.30;99.90;;;;;;5017302;28;20050;-60
2023/03/06 04:07:05;;;;;;;18.88;9.05;;;1.30;99.90;;;;;;5015847;28;20390;-59
2023/03/06 04:09:31;;;;;;;15.52;7.50;;;1.20;99.90;;;;;;5018498;28;20037;-60
2023/03/06 04:11:56;;;;;;;12.70;9.18;;;1.10;99.90;;;;;;5019045;28;20497;-59
2023/03/06 04:14:22;;;;;;;13.15;7.85;;;1.10;99.90;;;;;;5018058;28;20030;-58
2023/03/06 04:16:47;;;;;;;13.82;7.93;;;1.10;99.90;;;;;;5018766;28;20104;-60
2023/03/06 04:19:13;;;;;;;12.65;8.73;;;1.10;99.90;;;;;;5016985;28;20040;-59
2023/03/06 04:21:41;;;;;;;15.95;8.88;;;1.00;99.90;;;;;;5016893;28;20565;-59
2023/03/06 04:24:07;;;;;;;15.38;9.60;;;1.00;99.90;;;;;;5018534;28;20120;-59
2023/03/06 04:26:34;;;;;;;14.30;8.20;;;1.00;99.90;;;;;;5016446;28;20114;-58
2023/03/06 04:29:00;;;;;;;17.58;8.23;;;1.00;99.90;;;;;;5017139;28;20494;-59
2023/03/06 04:31:26;;;;;;;17.92;7.80;;;1.00;99.90;;;;;;5018197;28;20029;-59
2023/03/06 04:33:51;;;;;;;15.90;9.57;;;1.00;99.90;;;;;;5018551;28;20027;-58
2023/03/06 04:36:31;;;;;;;15.50;8.73;;;1.00;99.90;;;;;;5017326;28;20179;-58
2023/03/06 04:38:58;;;;;;;13.65;8.05;;;1.00;99.90;;;;;;5015776;28;20032;-59
2023/03/06 04:41:23;;;;;;;17.45;9.70;;;1.00;99.90;;;;;;5017409;28;20046;-58
2023/03/06 04:43:49;;;;;;;14.80;8.10;;;1.00;99.90;;;;;;5014668;28;20432;-59
2023/03/06 04:46:15;;;;;;;21.58;9.98;;;1.00;99.90;;;;;;5020708;28;20068;-59
2023/03/06 04:48:41;;;;;;;18.02;9.75;;;1.10;99.90;;;;;;5017512;28;20026;-57
2023/03/06 04:51:07;;;;;;;15.57;10.15;;;1.10;99.90;;;;;;5015575;28;20053;-57
2023/03/06 04:53:32;;;;;;;17.40;9.13;;;1.10;99.90;;;;;;5014507;28;20034;-58
2023/03/06 04:55:58;;;;;;;21.75;9.98;;;1.10;99.90;;;;;;5015904;28;20048;-58
2023/03/06 04:58:25;;;;;;;16.42;8.48;;;1.20;99.90;;;;;;5019840;28;20033;-56
2023/03/06 05:00:50;;;;;;;13.60;8.98;;;1.20;99.90;;;;;;5016180;28;20030;-56
2023/03/06 05:03:16;;;;;;;18.48;9.73;;;1.30;99.90;;;;;;5015188;28;20080;-58
2023/03/06 05:05:42;;;;;;;22.08;8.85;;;1.30;99.90;;;;;;5014941;28;20026;-58
2023/03/06 05:08:14;;;;;;;20.83;9.95;;;1.30;99.90;;;;;;5017343;28;20022;-57
2023/03/06 05:10:40;;;;;;;15.77;8.82;;;1.40;99.90;;;;;;5018145;28;20049;-58
2023/03/06 05:13:06;;;;;;;17.25;9.75;;;1.40;99.90;;;;;;5018814;28;20394;-57
2023/03/06 05:15:31;;;;;;;14.60;10.13;;;1.40;99.90;;;;;;5018651;28;20049;-59
2023/03/06 05:17:57;;;;;;;18.42;9.88;;;1.40;99.90;;;;;;5017857;28;20038;-57
2023/03/06 05:20:23;;;;;;;15.75;10.90;;;1.40;99.90;;;;;;5016532;28;20395;-57
2023/03/06 05:22:49;;;;;;;20.67;11.43;;;1.40;99.90;;;;;;5015997;28;20089;-57
2023/03/06 05:25:14;;;;;;;17.02;10.02;;;1.30;99.90;;;;;;5017117;28;20029;-59
2023/03/06 05:27:40;;;;;;;16.67;9.52;;;1.30;99.90;;;;;;5015880;28;20053;-58
2023/03/06 05:30:07;;;;;;;17.55;9.90;;;1.30;99.90;;;;;;5017683;28;20120;-58
2023/03/06 05:32:32;;;;;;;19.45;10.65;;;1.30;99.90;;;;;;5015248;28;20037;-58
2023/03/06 05:34:58;;;;;;;17.50;10.05;;;1.30;99.90;;;;;;5014496;28;20549;-57
2023/03/06 05:37:24;;;;;;;20.98;10.65;;;1.30;99.90;;;;;;5017885;28;20025;-59
2023/03/06 05:39:50;;;;;;;15.70;10.23;;;1.30;99.90;;;;;;5014389;28;20028;-59
2023/03/06 05:42:15;;;;;;;18.17;10.30;;;1.30;99.90;;;;;;5013788;28;20032;-58
2023/03/06 05:44:41;;;;;;;17.33;10.05;;;1.30;99.90;;;;;;5014045;28;20100;-59
2023/03/06 05:47:07;;;;;;;15.77;9.32;;;1.20;99.90;;;;;;5016122;28;20025;-59
2023/03/06 05:49:35;;;;;;;20.08;11.68;;;1.20;99.90;;;;;;5019604;28;20029;-59
2023/03/06 05:52:05;;;;;;;20.92;10.70;;;1.20;99.90;;;;;;5013272;28;20018;-59
2023/03/06 05:54:31;;;;;;;17.88;10.75;;;1.20;99.90;;;;;;5015989;28;20038;-59
2023/03/06 05:56:57;;;;;;;17.77;9.52;;;1.20;99.90;;;;;;5017907;28;20346;-57
2023/03/06 05:59:26;;;;;;;23.13;11.00;;;1.20;99.90;;;;;;5014908;28;20129;-58
2023/03/06 06:01:55;;;;;;;16.92;10.80;;;1.20;99.90;;;;;;5016884;28;20029;-59
2023/03/06 06:04:23;;;;;;;18.75;10.82;;;1.20;99.90;;;;;;5017758;28;20017;-57
2023/03/06 06:06:54;;;;;;;17.17;11.52;;;1.20;99.90;;;;;;5015638;28;20517;-57
2023/03/06 06:09:21;;;;;;;;;;;1.20;99.90;;;;;;5016284;28;20085;-58
2023/03/06 06:11:49;;;;;;;19.65;10.43;;;1.20;99.90;;;;;;5011077;28;19932;-57
2023/03/06 06:14:14;;;;;;;19.15;10.52;;;1.20;99.90;;;;;;5017113;28;20029;-57
2023/03/06 06:16:40;;;;;;;25.13;12.82;;;1.20;99.90;;;;;;5015525;28;20057;-57
2023/03/06 06:19:06;;;;;;;21.25;11.75;;;1.20;99.90;;;;;;5016273;28;20010;-58
2023/03/06 06:21:32;;;;;;;19.35;11.15;;;1.20;99.90;;;;;;5013700;28;20513;-58
2023/03/06 06:23:57;;;;;;;27.35;12.25;;;1.20;99.90;;;;;;5016854;28;20415;-58
2023/03/06 06:26:23;;;;;;;20.65;11.75;;;1.30;99.90;;;;;;5013985;28;20029;-58
2023/03/06 06:28:49;;;;;;;18.48;11.88;;;1.30;99.90;;;;;;5013089;28;20038;-57
2023/03/06 06:31:14;;;;;;;23.30;13.55;;;1.40;99.90;;;;;;5013522;28;20045;-57
2023/03/06 06:33:40;;;;;;;20.75;13.23;;;1.40;99.90;;;;;;5013630;28;20475;-57
2023/03/06 06:36:18;;;;;;;24.50;12.70;;;1.40;99.90;;;;;;5016967;28;20018;-58
2023/03/06 06:38:43;;;;;;;22.58;12.82;;;1.60;99.90;;;;;;5016849;28;20069;-58
2023/03/06 06:41:10;;;;;;;21.52;12.82;;;1.60;99.90;;;;;;5016715;28;20108;-57
2023/03/06 06:43:36;;;;;;;24.40;12.80;;;1.60;99.90;;;;;;5012976;28;20013;-58
2023/03/06 06:46:01;;;;;;;24.23;13.15;;;1.60;99.90;;;;;;5015303;28;20021;-58
2023/03/06 06:48:27;;;;;;;22.80;12.68;;;1.60;99.90;;;;;;5015643;28;20018;-59
2023/03/06 06:50:57;;;;;;;28.13;12.18;;;1.60;99.90;;;;;;5014306;28;20026;-58
2023/03/06 06:53:23;;;;;;;25.23;13.48;;;1.50;99.90;;;;;;5014794;28;20097;-58
2023/03/06 06:55:49;;;;;;;26.35;13.63;;;1.50;99.90;;;;;;5014704;28;20032;-57
2023/03/06 06:58:15;;;;;;;27.50;15.25;;;1.50;99.90;;;;;;5014754;28;20041;-58
2023/03/06 07:00:40;;;;;;;30.13;15.88;;;1.50;99.90;;;;;;5012614;28;20022;-58
2023/03/06 07:03:07;;;;;;;28.45;15.45;;;1.50;99.90;;;;;;5017168;28;20030;-57
2023/03/06 07:05:33;;;;;;;25.63;14.30;;;1.50;99.90;;;;;;5013251;28;20029;-59
2023/03/06 07:07:58;;;;;;;23.15;15.27;;;1.60;99.90;;;;;;5015465;28;20026;-58
2023/03/06 07:10:24;;;;;;;37.10;16.02;;;1.70;99.90;;;;;;5014876;28;20022;-58
2023/03/06 07:12:50;;;;;;;26.92;14.32;;;1.80;99.90;;;;;;5015370;28;20680;-58
2023/03/06 07:15:16;;;;;;;25.10;14.30;;;1.90;99.90;;;;;;5016666;28;20498;-59
2023/03/06 07:17:42;;;;;;;22.63;13.52;;;2.00;99.90;;;;;;5012519;28;20041;-57
2023/03/06 07:20:09;;;;;;;29.90;13.80;;;2.10;99.90;;;;;;5020087;28;20025;-58
2023/03/06 07:22:35;;;;;;;26.85;14.70;;;2.20;99.90;;;;;;5015887;28;20014;-58
2023/03/06 07:25:03;;;;;;;19.45;13.52;;;2.30;99.90;;;;;;5020185;28;20061;-58
2023/03/06 07:27:28;;;;;;;23.70;14.70;;;2.30;99.90;;;;;;5018781;28;20390;-57
2023/03/06 07:29:54;;;;;;;26.35;15.07;;;2.30;99.90;;;;;;5019864;28;20037;-56
2023/03/06 07:32:19;;;;;;;28.95;13.75;;;2.30;99.90;;;;;;5021027;28;20064;-58
2023/03/06 07:34:46;;;;;;;26.15;15.35;;;2.30;99.90;;;;;;5017375;28;20026;-57
2023/03/06 07:37:12;;;;;;;23.08;14.48;;;2.30;99.90;;;;;;5017963;28;20025;-59
2023/03/06 07:39:37;;;;;;;29.90;15.00;;;2.30;99.90;;;;;;5018695;28;20029;-56
2023/03/06 07:42:03;;;;;;;31.25;15.30;;;2.30;99.90;;;;;;5018967;28;20109;-58
2023/03/06 07:44:29;;;;;;;26.52;15.95;;;2.30;99.90;;;;;;5018779;28;20160;-55
2023/03/06 07:46:54;;;;;;;29.92;16.45;;;2.30;99.90;;;;;;5018302;28;20033;-57
2023/03/06 07:49:20;;;;;;;26.67;15.40;;;2.30;99.90;;;;;;5014466;28;20029;-57
2023/03/06 07:51:46;;;;;;;26.95;15.80;;;2.30;99.90;;;;;;5018835;28;20025;-57
2023/03/06 07:54:11;;;;;;;22.63;14.77;;;2.30;99.90;;;;;;5019377;28;20018;-59
2023/03/06 07:56:37;;;;;;;28.80;15.57;;;2.30;99.90;;;;;;5016077;28;20017;-57
2023/03/06 07:59:03;;;;;;;25.65;14.73;;;2.40;99.90;;;;;;5019348;28;20189;-57
2023/03/06 08:01:28;;;;;;;25.27;14.82;;;2.40;99.90;;;;;;5017683;28;20080;-57
2023/03/06 08:03:54;;;;;;;25.63;15.05;;;2.50;99.90;;;;;;5013807;28;20621;-56
2023/03/06 08:06:25;;;;;;;33.20;16.48;;;2.50;99.90;;;;;;5016977;28;20029;-58
2023/03/06 08:08:52;;;;;;;26.75;14.45;;;2.50;99.90;;;;;;5017265;28;20207;-57
2023/03/06 08:11:20;;;;;;;33.72;16.77;;;2.50;99.90;;;;;;5017175;28;20079;-59
2023/03/06 08:13:47;;;;;;;27.15;16.15;;;2.50;99.90;;;;;;5017254;28;20029;-58
2023/03/06 08:16:14;;;;;;;25.92;16.60;;;2.50;99.90;;;;;;5017628;28;20032;-58
2023/03/06 08:18:40;;;;;;;30.90;15.88;;;2.60;99.90;;;;;;5019310;28;20030;-56
2023/03/06 08:21:18;;;;;;;29.70;16.80;;;2.70;99.90;;;;;;5017961;28;20022;-58
2023/03/06 08:23:45;;;;;;;30.33;14.95;;;2.80;99.90;;;;;;5016403;28;20029;-58
2023/03/06 08:26:13;;;;;;;30.55;16.63;;;2.80;99.90;;;;;;5017471;28;20022;-57
2023/03/06 08:28:40;;;;;;;32.35;14.98;;;2.80;99.90;;;;;;5017420;28;20057;-58
2023/03/06 08:31:10;;;;;;;28.52;15.18;;;2.70;99.90;;;;;;5019455;28;20018;-58
2023/03/06 08:33:35;;;;;;;28.33;15.75;;;2.80;99.90;;;;;;5015905;28;20036;-58
2023/03/06 08:36:01;;;;;;;28.23;15.00;;;2.70;99.90;;;;;;5014581;28;20030;-59
2023/03/06 08:38:27;;;;;;;29.48;15.90;;;2.80;99.90;;;;;;5017030;28;20042;-59
2023/03/06 08:40:52;;;;;;;21.15;14.80;;;2.90;99.90;;;;;;5015175;28;20040;-59
2023/03/06 08:43:18;;;;;;;24.65;15.68;;;3.00;99.90;;;;;;5017651;28;20052;-58
2023/03/06 08:45:43;;;;;;;28.98;16.60;;;3.10;99.90;;;;;;5015691;28;20382;-59
2023/03/06 08:48:09;;;;;;;22.48;13.85;;;3.30;99.90;;;;;;5016745;28;20060;-58
2023/03/06 08:50:34;;;;;;;26.45;15.07;;;3.40;99.90;;;;;;5016082;28;20425;-57
2023/03/06 08:53:00;;;;;;;26.92;14.90;;;3.30;99.90;;;;;;5020203;28;20068;-58
2023/03/06 08:55:27;;;;;;;25.00;14.35;;;3.30;99.90;;;;;;5019321;28;20036;-58
2023/03/06 08:57:53;;;;;;;32.67;16.75;;;3.20;99.90;;;;;;5019004;28;20029;-57
2023/03/06 09:00:18;;;;;;;22.38;15.63;;;3.10;99.90;;;;;;5019848;28;20079;-58
2023/03/06 09:02:44;;;;;;;30.27;16.40;;;3.10;99.90;;;;;;5016442;28;20046;-58
2023/03/06 09:05:10;;;;;;;27.40;16.02;;;3.20;99.90;;;;;;5016547;28;20599;-58
2023/03/06 09:07:36;;;;;;;31.10;17.42;;;3.20;99.90;;;;;;5020161;28;20026;-59
2023/03/06 09:10:01;;;;;;;32.92;17.45;;;3.30;99.90;;;;;;5016992;28;20030;-58
2023/03/06 09:12:27;;;;;;;29.30;14.82;;;3.30;99.90;;;;;;5017778;28;20596;-58
2023/03/06 09:14:53;;;;;;;28.90;17.15;;;3.30;99.90;;;;;;5018160;28;20037;-58
2023/03/06 09:17:18;;;;;;;31.50;17.77;;;3.30;99.90;;;;;;5014123;28;20494;-56
2023/03/06 09:19:45;;;;;;;28.63;16.10;;;3.30;99.90;;;;;;5015631;28;20067;-58
2023/03/06 09:22:10;;;;;;;32.47;16.40;;;3.30;99.90;;;;;;5014310;28;20041;-58
2023/03/06 09:24:36;;;;;;;24.67;14.57;;;3.40;99.90;;;;;;5015018;28;20517;-58
2023/03/06 09:27:02;;;;;;;26.58;14.95;;;3.40;99.90;;;;;;5012860;28;20402;-59
2023/03/06 09:29:28;;;;;;;30.25;16.83;;;3.40;99.90;;;;;;5015419;28;20034;-59
2023/03/06 09:31:53;;;;;;;30.00;16.60;;;3.30;99.90;;;;;;5017336;28;20097;-57
2023/03/06 09:34:19;;;;;;;27.30;15.07;;;3.30;99.90;;;;;;5012494;28;20104;-58
2023/03/06 09:36:45;;;;;;;31.05;16.45;;;3.30;99.90;;;;;;5015757;28;20030;-58
2023/03/06 09:39:10;;;;;;;30.08;17.10;;;3.50;99.90;;;;;;5015435;28;20049;-57
2023/03/06 09:41:40;;;;;;;28.95;14.82;;;3.80;99.90;;;;;;5015120;28;20033;-59
2023/03/06 09:44:20;;;;;;;27.02;14.57;;;4.20;99.90;;;;;;5016452;28;20040;-57
2023/03/06 09:46:54;;;;;;;21.83;13.82;;;4.50;99.90;;;;;;5014194;28;20078;-58
2023/03/06 09:49:24;;;;;;;19.90;14.48;;;4.80;99.90;;;;;;5015533;28;20096;-59
2023/03/06 09:52:20;;;;;;;17.38;11.60;;;4.80;99.90;;;;;;5015964;28;20557;-57
2023/03/06 09:55:26;;;;;;;16.13;11.88;;;4.50;99.90;;;;;;5016833;28;20463;-58
2023/03/06 09:58:09;;;;;;;39.40;20.05;;;4.30;99.90;;;;;;5015019;28;20022;-57
2023/03/06 10:00:58;;;;;;;22.85;13.63;;;4.10;99.90;;;;;;5015179;28;20155;-58
2023/03/06 10:03:27;;;;;;;21.23;13.48;;;3.80;99.90;;;;;;5014880;28;20033;-56
2023/03/06 10:06:01;;;;;;;17.95;13.50;;;3.60;99.90;;;;;;5016598;28;20029;-58
2023/03/06 10:08:35;;;;;;;23.85;14.80;;;3.60;99.90;;;;;;5014423;28;20057;-58
2023/03/06 10:11:12;;;;;;;24.15;13.52;;;3.60;99.90;;;;;;5015562;28;20501;-56
2023/03/06 10:13:52;;;;;;;19.00;12.25;;;3.50;99.90;;;;;;5014241;28;20025;-57
2023/03/06 10:16:27;;;;;;;25.20;13.45;;;3.60;99.90;;;;;;5015549;28;20049;-59
2023/03/06 10:18:58;;;;;;;22.73;14.77;;;3.60;99.90;;;;;;5016133;28;20037;-58
2023/03/06 10:21:42;;;;;;;19.17;12.60;;;3.60;99.90;;;;;;5017541;28;20068;-58
2023/03/06 10:24:39;;;;;;;26.10;13.57;;;3.70;99.90;;;;;;5014374;28;20491;-57
2023/03/06 10:27:39;;;;;;;20.27;13.95;;;3.70;99.90;;;;;;5011516;28;20034;-58
2023/03/06 10:30:45;;;;;;;21.48;12.95;;;3.60;99.90;;;;;;5015334;28;20025;-58
2023/03/06 10:33:21;;;;;;;16.42;12.18;;;3.50;99.90;;;;;;5015417;28;20568;-58
2023/03/06 10:35:49;;;;;;;21.90;12.48;;;3.50;99.90;;;;;;5019368;28;20516;-58
2023/03/06 10:38:20;;;;;;;24.70;15.10;;;3.60;99.90;;;;;;5016253;28;20124;-57
2023/03/06 10:41:00;;;;;;;21.30;13.45;;;3.60;99.90;;;;;;5016212;28;20527;-57
2023/03/06 10:43:26;;;;;;;22.02;14.70;;;3.70;99.90;;;;;;5013156;28;20040;-56
2023/03/06 10:45:52;;;;;;;18.73;13.63;;;3.60;99.90;;;;;;5016560;28;20524;-57
2023/03/06 10:48:29;;;;;;;19.38;13.85;;;3.60;99.90;;;;;;5017523;28;20034;-59
2023/03/06 10:51:18;;;;;;;20.85;14.10;;;3.60;99.90;;;;;;5016143;28;20087;-58
2023/03/06 10:54:12;;;;;;;17.80;13.32;;;3.70;99.90;;;;;;5012941;28;20030;-58
2023/03/06 10:56:43;;;;;;;22.15;13.75;;;3.70;99.90;;;;;;5014327;28;20014;-59
2023/03/06 10:59:20;;;;;;;19.63;12.18;;;3.70;99.90;;;;;;5013116;28;20033;-58
2023/03/06 11:01:54;;;;;;;24.38;14.63;;;3.60;99.90;;;;;;5014787;28;20593;-58
2023/03/06 11:04:25;;;;;;;18.13;13.07;;;3.60;99.90;;;;;;5017365;28;20036;-57
2023/03/06 11:07:22;;;;;;;17.58;14.60;;;3.50;99.90;;;;;;5014973;28;20513;-57
2023/03/06 11:09:57;;;;;;;19.15;13.82;;;3.40;99.90;;;;;;5013954;28;20037;-59
2023/03/06 11:12:39;;;;;;;21.08;14.82;;;3.30;99.90;;;;;;5018757;28;20083;-59
2023/03/06 11:15:08;;;;;;;26.73;14.73;;;3.20;99.90;;;;;;5017702;28;20379;-58
2023/03/06 11:17:37;;;;;;;22.35;14.30;;;3.10;99.90;;;;;;5015852;28;20571;-58
2023/03/06 11:20:19;;;;;;;22.55;16.27;;;3.10;99.90;;;;;;5015525;28;20045;-59
2023/03/06 11:22:53;;;;;;;22.23;17.13;;;3.10;99.90;;;;;;5017513;28;20021;-57
2023/03/06 11:25:23;;;;;;;32.15;17.33;;;3.20;99.90;;;;;;5019064;28;20034;-57
2023/03/06 11:28:04;;;;;;;28.73;16.20;;;3.20;99.90;;;;;;5013852;28;20034;-59
2023/03/06 11:30:47;;;;;;;21.17;15.55;;;3.40;99.90;;;;;;5015182;28;20508;-58
2023/03/06 11:33:25;;;;;;;28.90;15.68;;;3.50;99.90;;;;;;5015475;28;20084;-59
2023/03/06 11:36:12;;;;;;;17.30;12.88;;;3.70;99.90;;;;;;5022377;28;20022;-58
2023/03/06 11:38:46;;;;;;;20.27;14.77;;;3.80;99.90;;;;;;5016255;28;20033;-58
2023/03/06 11:41:42;;;;;;;19.08;14.63;;;4.00;99.90;;;;;;5016233;28;20038;-57
2023/03/06 11:44:10;;;;;;;16.85;14.45;;;4.30;99.90;;;;;;5017870;28;20041;-58
2023/03/06 11:47:14;;;;;;;19.67;15.35;;;4.60;99.90;;;;;;5013820;28;20025;-57
2023/03/06 11:49:49;;;;;;;17.00;13.85;;;4.80;99.90;;;;;;4964622;28;20470;-58
2023/03/06 11:52:40;;;;;;;13.70;12.15;;;5.20;99.90;;;;;;5006788;28;20041;-56
2023/03/06 11:55:12;;;;;;;14.85;12.52;;;5.20;99.90;;;;;;5005062;28;20857;-56
2023/03/06 11:57:51;;;;;;;15.05;12.18;;;5.00;99.90;;;;;;5016149;28;20026;-58
2023/03/06 12:00:51;;;;;;;18.10;12.48;;;4.80;99.90;;;;;;5013860;28;20034;-57
2023/03/06 12:03:47;;;;;;;13.68;11.50;;;4.60;99.90;;;;;;5012796;28;20026;-58
2023/03/06 12:06:36;;;;;;;14.65;11.48;;;4.40;99.90;;;;;;5017961;28;20064;-59
2023/03/06 12:09:24;;;;;;;15.77;12.05;;;4.30;99.90;;;;;;5017960;28;20026;-57
2023/03/06 12:12:07;;;;;;;13.57;11.38;;;4.10;99.90;;;;;;5006177;28;20029;-58
2023/03/06 12:14:52;;;;;;;13.38;11.35;;;4.10;99.90;;;;;;5020510;28;20030;-57
2023/03/06 12:17:39;;;;;;;14.10;12.20;;;4.20;99.90;;;;;;5017386;28;20045;-58
2023/03/06 12:20:43;;;;;;;12.75;10.70;;;4.20;99.90;;;;;;5020846;28;20058;-59
2023/03/06 12:23:27;;;;;;;13.52;10.80;;;4.20;99.90;;;;;;5016088;28;20071;-58
2023/03/06 12:26:08;;;;;;;14.10;12.10;;;3.90;99.90;;;;;;5017059;28;20076;-57
2023/03/06 12:29:02;;;;;;;12.70;10.38;;;3.90;99.90;;;;;;5016839;28;20516;-57
2023/03/06 12:31:56;;;;;;;12.07;10.57;;;3.80;99.90;;;;;;5020304;28;20059;-58
2023/03/06 12:34:25;;;;;;;14.68;10.52;;;3.80;99.90;;;;;;5019641;28;20057;-57
2023/03/06 12:37:09;;;;;;;12.50;11.02;;;3.90;99.90;;;;;;5017751;28;20112;-57
2023/03/06 12:39:56;;;;;;;12.48;10.23;;;4.10;99.90;;;;;;5019002;28;20049;-58
2023/03/06 12:42:54;;;;;;;13.55;11.88;;;4.30;99.90;;;;;;5016230;28;20724;-57
2023/03/06 12:45:29;;;;;;;11.07;9.85;;;4.50;99.90;;;;;;5016690;28;20032;-57
2023/03/06 12:47:56;;;;;;;9.82;8.82;;;4.70;99.90;;;;;;5018339;28;20824;-58
2023/03/06 12:50:24;;;;;;;14.52;10.73;;;4.60;99.90;;;;;;5012914;28;20505;-59
2023/03/06 12:52:52;;;;;;;10.27;9.20;;;4.60;99.90;;;;;;5017564;28;20060;-59
2023/03/06 12:55:20;;;;;;;10.38;9.05;;;4.80;99.90;;;;;;5016877;28;20034;-59
2023/03/06 12:57:48;;;;;;;10.13;9.13;;;5.10;99.90;;;;;;5017713;28;20520;-58